createdAt,value
2018-06-25T00:00:40.035Z,15.32
2018-06-25T00:03:10.029Z,15.23
2018-06-25T00:05:39.951Z,15.17
2018-06-25T00:08:09.829Z,15.21
2018-06-25T00:10:40.047Z,15.22
2018-06-25T00:13:10.027Z,15.30
2018-06-25T00:15:39.969Z,15.33
2018-06-25T00:18:10.424Z,15.40
2018-06-25T00:20:40.301Z,15.37
2018-06-25T00:23:10.333Z,15.34
2018-06-25T00:25:40.292Z,15.42
2018-06-25T00:28:11.448Z,15.42
2018-06-25T00:30:41.453Z,15.43
2018-06-25T00:33:11.932Z,15.30
2018-06-25T00:35:41.997Z,15.37
2018-06-25T00:38:12.517Z,15.34
2018-06-25T00:40:42.816Z,15.30
2018-06-25T00:43:12.921Z,15.32
2018-06-25T00:45:42.819Z,15.36
2018-06-25T00:48:12.829Z,15.29
2018-06-25T00:50:42.986Z,15.30
2018-06-25T00:53:13.004Z,15.32
2018-06-25T00:55:42.976Z,15.26
2018-06-25T00:58:12.927Z,15.05
2018-06-25T01:00:43.157Z,14.96
2018-06-25T01:03:13.205Z,14.88
2018-06-25T01:05:43.381Z,14.89
2018-06-25T01:08:13.348Z,14.90
2018-06-25T01:10:43.269Z,14.72
2018-06-25T01:13:13.283Z,14.73
2018-06-25T01:15:43.324Z,14.70
2018-06-25T01:18:13.317Z,14.73
2018-06-25T01:20:43.375Z,14.73
2018-06-25T01:23:13.384Z,14.75
2018-06-25T01:25:43.544Z,14.74
2018-06-25T01:28:13.700Z,14.65
2018-06-25T01:30:43.665Z,14.73
2018-06-25T01:33:14.009Z,14.76
2018-06-25T01:35:44.066Z,14.76
2018-06-25T01:38:13.965Z,14.71
2018-06-25T01:40:44.046Z,14.75
2018-06-25T01:43:13.977Z,14.77
2018-06-25T01:45:44.589Z,14.82
2018-06-25T01:48:14.513Z,14.84
2018-06-25T01:50:44.951Z,14.84
2018-06-25T01:53:14.787Z,15.00
2018-06-25T01:55:44.854Z,14.88
2018-06-25T01:58:14.721Z,14.85
2018-06-25T02:00:44.753Z,14.85
2018-06-25T02:03:14.687Z,14.93
2018-06-25T02:05:44.768Z,14.94
2018-06-25T02:08:15.868Z,14.98
2018-06-25T02:10:45.842Z,14.97
2018-06-25T02:13:16.145Z,14.98
2018-06-25T02:15:46.357Z,15.02
2018-06-25T02:18:16.339Z,15.07
2018-06-25T02:20:46.350Z,14.99
2018-06-25T02:23:16.682Z,15.07
2018-06-25T02:25:46.663Z,15.03
2018-06-25T02:28:16.655Z,14.98
2018-06-25T02:30:47.000Z,15.05
2018-06-25T02:33:17.102Z,14.97
2018-06-25T02:35:47.510Z,14.96
2018-06-25T02:38:17.369Z,15.05
2018-06-25T02:40:47.469Z,15.05
2018-06-25T02:43:17.343Z,14.98
2018-06-25T02:45:47.864Z,14.99
2018-06-25T02:48:18.083Z,14.98
2018-06-25T02:50:48.589Z,15.12
2018-06-25T02:53:18.694Z,15.05
2018-06-25T02:55:48.788Z,15.06
2018-06-25T02:58:18.836Z,15.05
2018-06-25T03:00:48.768Z,15.11
2018-06-25T03:03:18.732Z,15.12
2018-06-25T03:05:48.967Z,15.12
2018-06-25T03:08:18.840Z,15.15
2018-06-25T03:10:49.250Z,15.19
2018-06-25T03:13:19.851Z,15.22
2018-06-25T03:15:50.229Z,15.27
2018-06-25T03:18:20.259Z,15.35
2018-06-25T03:20:57.060Z,15.46
2018-06-25T03:23:28.099Z,15.56
2018-06-25T03:25:58.488Z,15.64
2018-06-25T03:28:28.807Z,16.11
2018-06-25T03:30:58.762Z,16.55
2018-06-25T03:33:28.753Z,16.28
2018-06-25T03:35:59.057Z,16.27
2018-06-25T03:38:29.145Z,16.68
2018-06-25T03:40:59.044Z,17.45
2018-06-25T03:43:29.423Z,17.36
2018-06-25T03:45:59.412Z,17.37
2018-06-25T03:48:29.964Z,17.70
2018-06-25T03:51:00.344Z,17.38
2018-06-25T03:53:30.690Z,17.25
2018-06-25T03:56:00.992Z,17.08
2018-06-25T03:58:30.911Z,17.22
2018-06-25T04:01:00.951Z,17.32
2018-06-25T04:03:30.898Z,17.05
2018-06-25T04:06:01.197Z,17.42
2018-06-25T04:08:31.160Z,17.59
2018-06-25T04:11:00.979Z,17.38
2018-06-25T04:13:30.959Z,17.59
2018-06-25T04:16:00.785Z,17.23
2018-06-25T04:18:30.955Z,17.24
2018-06-25T04:21:00.725Z,17.18
2018-06-25T04:23:31.179Z,17.18
2018-06-25T04:26:01.591Z,17.35
2018-06-25T04:28:31.836Z,17.07
2018-06-25T04:31:01.741Z,17.07
2018-06-25T04:33:31.720Z,17.21
2018-06-25T04:36:01.682Z,17.01
2018-06-25T04:38:31.645Z,17.28
2018-06-25T04:41:01.750Z,17.04
2018-06-25T04:43:31.700Z,17.21
2018-06-25T04:46:01.692Z,17.07
2018-06-25T04:48:31.710Z,17.20
2018-06-25T04:51:02.096Z,17.29
2018-06-25T04:53:32.408Z,17.19
2018-06-25T04:56:02.645Z,17.09
2018-06-25T04:58:32.873Z,17.26
2018-06-25T05:01:03.534Z,17.29
2018-06-25T05:03:33.487Z,17.35
2018-06-25T05:06:03.451Z,17.38
2018-06-25T05:08:33.480Z,17.71
2018-06-25T05:11:03.512Z,17.35
2018-06-25T05:13:34.968Z,17.66
2018-06-25T05:16:05.441Z,17.59
2018-06-25T05:18:35.888Z,17.72
2018-06-25T05:21:05.909Z,17.85
2018-06-25T05:23:36.240Z,17.93
2018-06-25T05:26:06.773Z,18.03
2018-06-25T05:28:37.229Z,18.40
2018-06-25T05:31:07.157Z,18.55
2018-06-25T05:33:37.157Z,18.73
2018-06-25T05:36:07.371Z,19.10
2018-06-25T05:38:37.722Z,19.17
2018-06-25T05:41:07.768Z,19.49
2018-06-25T05:43:38.016Z,19.66
2018-06-25T05:46:08.688Z,19.53
2018-06-25T05:48:39.233Z,19.60
2018-06-25T05:51:09.450Z,19.87
2018-06-25T05:53:40.104Z,19.58
2018-06-25T05:56:10.183Z,19.82
2018-06-25T05:58:40.266Z,19.91
2018-06-25T06:18:39.759Z,21.92
2018-06-25T06:21:09.581Z,22.68
2018-06-25T06:23:39.796Z,22.46
2018-06-25T06:26:10.296Z,22.59
2018-06-25T06:28:40.407Z,22.92
2018-06-25T06:31:10.592Z,22.64
2018-06-25T06:33:40.691Z,22.95
2018-06-25T06:36:10.594Z,22.34
2018-06-25T06:38:40.641Z,22.48
2018-06-25T06:41:11.031Z,22.97
2018-06-25T06:43:41.192Z,22.58
2018-06-25T06:46:11.457Z,22.23
2018-06-25T06:48:41.912Z,23.28
2018-06-25T06:51:12.192Z,22.13
2018-06-25T06:53:42.171Z,23.07
2018-06-25T06:56:12.595Z,23.06
2018-06-25T06:58:43.007Z,22.89
2018-06-25T07:01:13.062Z,22.71
2018-06-25T07:03:42.956Z,22.51
2018-06-25T07:06:12.972Z,22.26
2018-06-25T07:08:43.233Z,22.59
2018-06-25T07:11:14.542Z,23.69
2018-06-25T07:13:45.160Z,22.95
2018-06-25T07:16:15.161Z,23.55
2018-06-25T07:18:45.697Z,23.78
2018-06-25T07:21:16.608Z,23.04
2018-06-25T07:23:46.940Z,22.57
2018-06-25T07:26:22.003Z,22.99
2018-06-25T07:28:52.342Z,23.02
2018-06-25T07:31:22.372Z,23.64
2018-06-25T07:33:52.464Z,23.29
2018-06-25T07:36:22.770Z,23.33
2018-06-25T07:38:52.674Z,23.48
2018-06-25T07:41:22.770Z,23.83
2018-06-25T07:43:52.865Z,23.83
2018-06-25T07:46:23.108Z,23.04
2018-06-25T07:48:53.136Z,23.36
2018-06-25T07:51:23.096Z,23.15
2018-06-25T07:53:53.221Z,23.63
2018-06-25T07:56:23.375Z,23.84
2018-06-25T07:58:53.651Z,23.77
2018-06-25T08:01:23.877Z,23.53
2018-06-25T08:03:53.954Z,23.62
2018-06-25T08:06:24.136Z,23.65
2018-06-25T08:08:54.194Z,23.62
2018-06-25T08:11:24.205Z,23.47
2018-06-25T08:13:54.130Z,24.15
2018-06-25T08:16:24.328Z,23.70
2018-06-25T08:18:54.567Z,23.93
2018-06-25T08:21:24.770Z,23.73
2018-06-25T08:23:54.656Z,23.96
2018-06-25T08:26:24.771Z,23.81
2018-06-25T08:28:55.263Z,23.64
2018-06-25T08:31:25.320Z,24.08
2018-06-25T08:33:55.701Z,24.30
2018-06-25T08:36:26.147Z,23.98
2018-06-25T08:38:56.209Z,24.04
2018-06-25T08:41:26.244Z,23.51
2018-06-25T08:43:56.644Z,23.67
2018-06-25T08:46:27.060Z,23.95
2018-06-25T08:48:57.747Z,23.96
2018-06-25T08:51:28.006Z,24.20
2018-06-25T08:53:58.202Z,24.32
2018-06-25T08:56:28.097Z,24.18
2018-06-25T08:58:58.468Z,23.94
2018-06-25T09:01:28.921Z,23.92
2018-06-25T09:03:59.432Z,23.97
2018-06-25T09:06:29.476Z,23.78
2018-06-25T09:09:00.132Z,23.99
2018-06-25T09:11:30.305Z,23.87
2018-06-25T09:14:00.268Z,23.84
2018-06-25T09:16:30.296Z,24.02
2018-06-25T09:19:00.477Z,24.68
2018-06-25T09:21:30.537Z,24.75
2018-06-25T09:24:00.600Z,24.15
2018-06-25T09:26:30.668Z,24.30
2018-06-25T09:29:00.618Z,24.21
2018-06-25T09:31:30.666Z,24.19
2018-06-25T09:34:03.393Z,24.17
2018-06-25T09:36:33.439Z,24.27
2018-06-25T09:39:03.481Z,24.44
2018-06-25T09:41:34.199Z,24.32
2018-06-25T09:44:04.455Z,24.55
2018-06-25T09:46:34.537Z,24.67
2018-06-25T09:49:04.451Z,24.36
2018-06-25T09:51:34.821Z,24.34
2018-06-25T09:54:05.060Z,24.42
2018-06-25T09:56:35.103Z,24.39
2018-06-25T09:59:06.147Z,24.92
2018-06-25T10:01:37.672Z,24.72
2018-06-25T10:04:09.168Z,24.61
2018-06-25T10:06:39.552Z,24.82
2018-06-25T10:09:11.977Z,25.02
2018-06-25T10:11:42.355Z,24.42
2018-06-25T10:14:12.580Z,24.93
2018-06-25T10:16:42.541Z,24.57
2018-06-25T10:19:13.444Z,24.59
2018-06-25T10:21:43.599Z,24.85
2018-06-25T10:24:13.788Z,24.55
2018-06-25T10:26:43.968Z,25.11
2018-06-25T10:29:14.447Z,24.90
2018-06-25T10:31:44.303Z,24.85
2018-06-25T10:34:14.881Z,25.01
2018-06-25T10:36:46.358Z,24.73
2018-06-25T10:39:16.788Z,24.64
2018-06-25T10:41:47.155Z,25.43
2018-06-25T10:44:17.410Z,24.89
2018-06-25T10:46:47.295Z,24.16
2018-06-25T10:49:18.426Z,25.33
2018-06-25T10:51:48.544Z,25.35
2018-06-25T10:54:18.639Z,24.78
2018-06-25T10:56:49.136Z,25.08
2018-06-25T10:59:19.586Z,24.84
2018-06-25T11:01:49.783Z,25.39
2018-06-25T11:04:19.749Z,24.92
2018-06-25T11:06:49.720Z,24.82
2018-06-25T11:09:19.723Z,24.35
2018-06-25T11:11:50.236Z,24.34
2018-06-25T11:14:20.704Z,24.47
2018-06-25T11:16:51.763Z,24.58
2018-06-25T11:19:21.780Z,24.52
2018-06-25T11:21:51.760Z,24.70
2018-06-25T11:24:21.801Z,24.26
2018-06-25T11:26:51.871Z,24.68
2018-06-25T11:29:22.233Z,25.14
2018-06-25T11:31:52.843Z,25.10
2018-06-25T11:34:22.822Z,25.30
2018-06-25T11:36:53.268Z,25.04
2018-06-25T11:39:23.485Z,25.90
2018-06-25T11:41:53.531Z,25.28
2018-06-25T11:44:23.657Z,25.20
2018-06-25T11:46:53.592Z,25.05
2018-06-25T11:49:23.612Z,25.14
2018-06-25T11:51:54.147Z,24.97
2018-06-25T11:54:24.148Z,25.52
2018-06-25T11:56:54.002Z,24.90
2018-06-25T11:59:23.944Z,24.84
2018-06-25T12:01:54.108Z,24.71
2018-06-25T12:04:24.548Z,24.84
2018-06-25T12:06:54.558Z,25.00
2018-06-25T12:09:25.095Z,24.74
2018-06-25T12:11:55.024Z,24.70
2018-06-25T12:14:25.191Z,24.85
2018-06-25T12:16:55.090Z,25.41
2018-06-25T12:19:24.984Z,25.22
2018-06-25T12:21:54.874Z,25.68
2018-06-25T12:24:25.098Z,25.63
2018-06-25T12:26:54.988Z,26.01
2018-06-25T12:29:25.136Z,25.36
2018-06-25T12:31:55.641Z,25.19
2018-06-25T12:34:25.492Z,25.36
2018-06-25T12:36:55.468Z,25.38
2018-06-25T12:39:25.675Z,25.13
2018-06-25T12:41:56.402Z,25.64
2018-06-25T12:44:26.795Z,26.14
2018-06-25T12:46:57.192Z,25.37
2018-06-25T12:49:27.512Z,25.99
2018-06-25T12:51:57.761Z,26.34
2018-06-25T12:54:27.735Z,25.60
2018-06-25T12:56:57.710Z,26.01
2018-06-25T12:59:27.884Z,26.36
2018-06-25T13:01:58.206Z,25.41
2018-06-25T13:04:28.121Z,26.91
2018-06-25T13:06:58.137Z,26.59
2018-06-25T13:09:28.161Z,28.60
2018-06-25T13:11:58.158Z,29.56
2018-06-25T13:14:28.369Z,29.45
2018-06-25T13:16:58.408Z,29.68
2018-06-25T13:19:28.433Z,30.07
2018-06-25T13:21:59.065Z,29.55
2018-06-25T13:24:29.535Z,29.46
2018-06-25T13:27:00.231Z,30.70
2018-06-25T13:29:30.356Z,29.81
2018-06-25T13:32:00.306Z,30.20
2018-06-25T13:34:30.241Z,31.55
2018-06-25T13:37:00.193Z,31.54
2018-06-25T13:39:30.701Z,30.73
2018-06-25T13:42:01.565Z,31.82
2018-06-25T13:44:31.937Z,30.44
2018-06-25T13:47:02.789Z,31.14
2018-06-25T13:49:33.101Z,32.00
2018-06-25T13:52:03.580Z,33.09
2018-06-25T13:54:33.836Z,31.90
2018-06-25T13:57:04.105Z,31.86
2018-06-25T13:59:34.354Z,32.30
2018-06-25T14:02:04.294Z,32.99
2018-06-25T14:04:34.345Z,32.53
2018-06-25T14:07:04.519Z,30.46
2018-06-25T14:09:34.735Z,30.64
2018-06-25T14:12:05.004Z,30.83
2018-06-25T14:14:34.882Z,30.45
2018-06-25T14:17:04.872Z,29.46
2018-06-25T14:19:34.762Z,30.00
2018-06-25T14:22:04.788Z,31.34
2018-06-25T14:24:39.975Z,32.26
2018-06-25T14:27:11.839Z,32.75
2018-06-25T14:29:42.135Z,32.75
2018-06-25T14:32:48.123Z,32.35
2018-06-25T14:35:18.176Z,32.48
2018-06-25T14:37:48.241Z,32.24
2018-06-25T14:40:18.667Z,30.93
2018-06-25T14:42:48.740Z,32.44
2018-06-25T14:45:18.733Z,33.52
2018-06-25T14:47:48.603Z,32.60
2018-06-25T14:50:19.253Z,32.69
2018-06-25T14:52:49.252Z,32.17
2018-06-25T14:55:19.292Z,32.13
2018-06-25T14:57:49.193Z,31.36
2018-06-25T15:00:21.501Z,31.52
2018-06-25T15:02:52.093Z,31.43
2018-06-25T15:05:22.308Z,31.37
2018-06-25T15:07:52.183Z,32.31
2018-06-25T15:10:22.669Z,31.75
2018-06-25T15:12:53.127Z,32.01
2018-06-25T15:15:23.579Z,32.18
2018-06-25T15:17:54.086Z,31.83
2018-06-25T15:20:24.380Z,31.90
2018-06-25T15:22:54.370Z,32.63
2018-06-25T15:25:24.794Z,32.42
2018-06-25T15:27:55.281Z,32.56
2018-06-25T15:30:25.061Z,32.76
2018-06-25T15:32:55.068Z,31.75
2018-06-25T15:35:24.942Z,32.20
2018-06-25T15:37:55.048Z,32.49
2018-06-25T15:40:24.920Z,31.83
2018-06-25T15:42:55.477Z,32.37
2018-06-25T15:45:25.738Z,32.80
2018-06-25T15:47:55.911Z,33.00
2018-06-25T15:50:26.313Z,31.15
2018-06-25T15:52:57.484Z,31.54
2018-06-25T15:55:27.761Z,32.10
2018-06-25T15:57:57.988Z,31.70
2018-06-25T16:00:27.961Z,31.62
2018-06-25T16:02:57.879Z,32.65
2018-06-25T16:05:27.963Z,32.41
2018-06-25T16:07:57.937Z,32.33
2018-06-25T16:10:27.861Z,32.15
2018-06-25T16:12:57.787Z,31.14
2018-06-25T16:15:27.883Z,31.42
2018-06-25T16:17:57.853Z,30.67
2018-06-25T16:20:28.687Z,32.30
2018-06-25T16:22:58.805Z,32.94
2018-06-25T16:25:29.117Z,32.51
2018-06-25T16:27:59.311Z,30.64
2018-06-25T16:30:29.303Z,30.45
2018-06-25T16:32:59.259Z,30.94
2018-06-25T16:35:29.191Z,31.57
2018-06-25T16:37:59.061Z,32.57
2018-06-25T16:40:29.130Z,31.29
2018-06-25T16:42:59.164Z,30.65
2018-06-25T16:45:29.169Z,30.61
2018-06-25T16:47:59.220Z,30.86
2018-06-25T16:50:29.210Z,30.01
2018-06-25T16:52:59.250Z,30.97
2018-06-25T16:55:29.188Z,30.46
2018-06-25T16:57:59.647Z,28.29
2018-06-25T17:00:29.624Z,27.98
2018-06-25T17:02:59.558Z,27.85
2018-06-25T17:05:29.529Z,26.37
2018-06-25T17:07:59.557Z,26.18
2018-06-25T17:10:29.539Z,25.64
2018-06-25T17:12:59.504Z,24.65
2018-06-25T17:15:29.576Z,24.08
2018-06-25T17:17:59.618Z,23.96
2018-06-25T17:20:29.583Z,24.03
2018-06-25T17:22:59.654Z,24.09
2018-06-25T17:25:29.547Z,24.25
2018-06-25T17:27:59.513Z,24.67
2018-06-25T17:30:29.505Z,25.03
2018-06-25T17:32:59.340Z,24.91
2018-06-25T17:35:29.385Z,24.84
2018-06-25T17:37:59.329Z,24.51
2018-06-25T17:40:29.278Z,24.47
2018-06-25T17:42:59.345Z,24.13
2018-06-25T17:45:29.359Z,23.54
2018-06-25T17:47:59.232Z,23.75
2018-06-25T17:50:29.182Z,23.04
2018-06-25T17:52:59.172Z,23.51
2018-06-25T17:55:29.248Z,23.12
2018-06-25T17:57:59.196Z,23.10
2018-06-25T18:00:29.249Z,22.85
2018-06-25T18:02:59.372Z,22.83
2018-06-25T18:05:29.320Z,22.90
2018-06-25T18:07:59.234Z,22.79
2018-06-25T18:10:29.236Z,22.85
2018-06-25T18:12:59.210Z,22.82
2018-06-25T18:15:29.219Z,22.65
2018-06-25T18:17:59.181Z,22.70
2018-06-25T18:20:29.177Z,23.04
2018-06-25T18:22:59.610Z,22.85
2018-06-25T18:25:29.516Z,22.93
2018-06-25T18:27:59.456Z,22.87
2018-06-25T18:30:29.565Z,22.85
2018-06-25T18:32:59.481Z,22.58
2018-06-25T18:35:29.412Z,22.73
2018-06-25T18:37:59.385Z,22.49
2018-06-25T18:40:29.670Z,22.53
2018-06-25T18:42:59.744Z,22.66
2018-06-25T18:45:29.862Z,22.89
2018-06-25T18:47:59.809Z,22.76
2018-06-25T18:50:29.844Z,22.86
2018-06-25T18:52:59.847Z,22.73
2018-06-25T18:55:29.820Z,22.65
2018-06-25T18:57:59.759Z,22.28
2018-06-25T19:00:29.755Z,22.17
2018-06-25T19:02:59.754Z,21.99
2018-06-25T19:05:29.703Z,22.21
2018-06-25T19:07:59.625Z,22.13
2018-06-25T19:10:30.724Z,22.04
2018-06-25T19:13:00.777Z,22.02
2018-06-25T19:15:30.711Z,21.71
2018-06-25T19:18:00.751Z,22.05
2018-06-25T19:20:30.727Z,21.66
2018-06-25T19:23:01.537Z,21.90
2018-06-25T19:25:31.589Z,21.80
2018-06-25T19:28:01.701Z,21.87
2018-06-25T19:30:31.897Z,21.82
2018-06-25T19:33:01.754Z,21.57
2018-06-25T19:35:31.887Z,21.65
2018-06-25T19:38:01.812Z,21.65
2018-06-25T19:40:31.991Z,21.89
2018-06-25T19:43:02.050Z,21.95
2018-06-25T19:45:32.437Z,21.81
2018-06-25T19:48:02.367Z,21.69
2018-06-25T19:50:32.348Z,21.55
2018-06-25T19:53:02.244Z,21.84
2018-06-25T19:55:33.152Z,21.60
2018-06-25T19:58:03.599Z,21.69
2018-06-25T20:00:33.873Z,21.38
2018-06-25T20:03:04.000Z,21.39
2018-06-25T20:05:34.148Z,21.23
2018-06-25T20:08:04.351Z,21.73
2018-06-25T20:10:34.627Z,21.32
2018-06-25T20:13:04.624Z,21.44
2018-06-25T20:15:34.602Z,21.36
2018-06-25T20:18:04.515Z,21.25
2018-06-25T20:20:34.503Z,21.42
2018-06-25T20:23:04.928Z,21.23
2018-06-25T20:25:34.809Z,21.22
2018-06-25T20:28:04.769Z,21.30
2018-06-25T20:30:35.017Z,21.23
2018-06-25T20:33:05.112Z,21.45
2018-06-25T20:35:35.072Z,21.29
2018-06-25T20:38:06.135Z,21.37
2018-06-25T20:40:36.000Z,21.08
2018-06-25T20:43:05.969Z,21.05
2018-06-25T20:45:35.920Z,21.09
2018-06-25T20:48:06.153Z,21.20
2018-06-25T20:50:36.135Z,21.15
2018-06-25T20:53:05.999Z,20.75
2018-06-25T20:55:35.864Z,20.90
2018-06-25T20:58:06.051Z,20.86
2018-06-25T21:00:35.937Z,20.91
2018-06-25T21:03:06.266Z,20.91
2018-06-25T21:05:36.604Z,21.04
2018-06-25T21:08:06.732Z,20.79
2018-06-25T21:10:36.580Z,20.81
2018-06-25T21:13:06.501Z,21.05
2018-06-25T21:15:36.399Z,20.99
2018-06-25T21:18:06.353Z,20.88
2018-06-25T21:20:36.974Z,20.90
2018-06-25T21:23:08.366Z,20.90
2018-06-25T21:25:38.576Z,20.83
2018-06-25T21:28:08.471Z,20.89
2018-06-25T21:30:38.727Z,20.56
2018-06-25T21:33:09.070Z,20.70
2018-06-25T21:35:39.092Z,20.89
2018-06-25T21:38:09.099Z,20.74
2018-06-25T21:40:39.012Z,20.68
2018-06-25T21:43:09.267Z,20.82
2018-06-25T21:45:39.822Z,20.78
2018-06-25T21:48:10.057Z,20.63
2018-06-25T21:50:40.028Z,20.52
2018-06-25T21:53:10.305Z,20.78
2018-06-25T21:55:40.567Z,20.78
2018-06-25T21:58:10.644Z,20.63
2018-06-25T22:00:47.811Z,20.68
2018-06-25T22:03:18.151Z,20.71
2018-06-25T22:05:48.741Z,20.44
2018-06-25T22:08:19.197Z,20.60
2018-06-25T22:10:49.171Z,20.46
2018-06-25T22:13:19.532Z,20.58
2018-06-25T22:15:49.464Z,20.73
2018-06-25T22:18:19.470Z,20.79
2018-06-25T22:20:49.405Z,20.91
2018-06-25T22:23:19.381Z,20.62
2018-06-25T22:25:49.755Z,20.67
2018-06-25T22:28:20.005Z,20.71
2018-06-25T22:30:50.037Z,20.66
2018-06-25T22:33:19.968Z,20.83
2018-06-25T22:35:49.908Z,20.73
2018-06-25T22:38:20.050Z,21.09
2018-06-25T22:40:49.948Z,20.96
2018-06-25T22:43:19.912Z,20.94
2018-06-25T22:45:50.037Z,21.17
2018-06-25T22:48:20.180Z,21.23
2018-06-25T22:50:50.067Z,21.13
2018-06-25T22:53:20.221Z,21.19
2018-06-25T22:55:50.178Z,21.22
2018-06-25T22:58:20.482Z,21.57
2018-06-25T23:00:50.737Z,21.43
2018-06-25T23:03:20.726Z,21.71
2018-06-25T23:05:50.943Z,21.66
2018-06-25T23:08:21.108Z,21.87
2018-06-25T23:10:51.071Z,21.71
2018-06-25T23:13:21.395Z,21.59
2018-06-25T23:15:51.572Z,21.46
2018-06-25T23:18:21.804Z,21.69
2018-06-25T23:20:52.112Z,21.55
2018-06-25T23:23:22.540Z,21.26
2018-06-25T23:25:52.468Z,21.10
2018-06-25T23:28:22.606Z,21.06
2018-06-25T23:30:52.608Z,21.39
2018-06-25T23:33:22.622Z,21.45
2018-06-25T23:35:52.601Z,21.48
2018-06-25T23:38:22.620Z,21.56
2018-06-25T23:40:52.584Z,21.28
2018-06-25T23:43:22.665Z,21.31
2018-06-25T23:45:53.545Z,21.25
2018-06-25T23:48:23.391Z,21.41
2018-06-25T23:50:54.565Z,21.41
2018-06-25T23:53:24.712Z,21.59
2018-06-25T23:55:54.885Z,21.51
2018-06-25T23:58:25.233Z,21.29
